TimePST,TemperatureF,Dew PointF,Humidity,Sea Level PressureIn,VisibilityMPH,Wind Direction,Wind SpeedMPH,Gust SpeedMPH,PrecipitationIn,Events,Conditions,WindDirDegrees,DateUTC
12:53 AM,41.0,37.9,89,29.80,10.0,SE,8.1,-,0.03,Rain,Light Rain,140,2012-12-14 08:53:00
1:53 AM,39.9,37.9,93,29.80,9.0,SE,8.1,-,0.04,Rain,Light Rain,130,2012-12-14 09:53:00
2:53 AM,41.0,37.9,89,29.80,8.0,SE,4.6,-,0.03,Rain,Light Rain,130,2012-12-14 10:53:00
3:53 AM,41.0,37.0,86,29.79,7.0,South,5.8,-,0.08,Rain,Light Rain,180,2012-12-14 11:53:00
4:53 AM,39.9,37.0,89,29.79,8.0,Calm,Calm,-,0.04,Rain,Light Rain,0,2012-12-14 12:53:00
5:11 AM,39.2,37.4,93,29.80,10.0,Calm,Calm,-,0.00,Rain,Light Rain,0,2012-12-14 13:11:00
5:53 AM,39.9,37.0,89,29.81,10.0,SE,4.6,-,0.01,,Overcast,130,2012-12-14 13:53:00
6:07 AM,39.2,37.4,93,29.81,6.0,ESE,3.5,-,0.00,Rain,Light Rain,110,2012-12-14 14:07:00
6:18 AM,39.2,37.4,93,29.81,6.0,Calm,Calm,-,0.00,,Overcast,0,2012-12-14 14:18:00
6:53 AM,39.9,37.9,93,29.82,7.0,SE,3.5,-,0.01,,Overcast,140,2012-12-14 14:53:00
7:15 AM,39.2,37.4,93,29.82,10.0,SE,4.6,-,N/A,,Overcast,140,2012-12-14 15:15:00
7:53 AM,39.9,37.9,93,29.83,6.0,SE,4.6,-,0.01,Rain,Light Rain,140,2012-12-14 15:53:00
8:23 AM,39.2,37.4,93,29.84,10.0,SE,4.6,-,0.00,,Overcast,140,2012-12-14 16:23:00
8:53 AM,39.9,37.9,93,29.85,10.0,ESE,4.6,-,0.00,Rain,Light Rain,110,2012-12-14 16:53:00
9:00 AM,39.2,37.4,93,29.85,10.0,ESE,3.5,-,0.00,,Overcast,120,2012-12-14 17:00:00
9:53 AM,41.0,39.0,93,29.87,10.0,Calm,Calm,-,0.00,,Overcast,0,2012-12-14 17:53:00
10:53 AM,43.0,37.9,82,29.88,10.0,North,6.9,-,N/A,,Mostly Cloudy,350,2012-12-14 18:53:00
11:18 AM,42.8,37.4,81,29.88,10.0,East,5.8,-,N/A,,Mostly Cloudy,90,2012-12-14 19:18:00
11:27 AM,42.8,37.4,81,29.88,10.0,Calm,Calm,-,N/A,,Overcast,0,2012-12-14 19:27:00
11:53 AM,43.0,37.0,80,29.89,10.0,Variable,3.5,-,N/A,,Mostly Cloudy,0,2012-12-14 19:53:00
12:53 PM,44.1,35.1,71,29.90,10.0,NNE,3.5,-,N/A,,Mostly Cloudy,20,2012-12-14 20:53:00
1:53 PM,44.1,33.1,65,29.91,10.0,Calm,Calm,-,N/A,,Overcast,0,2012-12-14 21:53:00
2:53 PM,44.1,34.0,68,29.92,10.0,East,5.8,-,N/A,,Overcast,80,2012-12-14 22:53:00
3:53 PM,43.0,36.0,76,29.94,10.0,Calm,Calm,-,N/A,,Overcast,0,2012-12-14 23:53:00
4:53 PM,43.0,34.0,71,29.94,10.0,Calm,Calm,-,N/A,,Overcast,0,2012-12-15 00:53:00
5:53 PM,42.1,34.0,73,29.95,10.0,Calm,Calm,-,N/A,,Overcast,0,2012-12-15 01:53:00
6:53 PM,39.9,35.1,83,29.94,10.0,Calm,Calm,-,N/A,,Mostly Cloudy,0,2012-12-15 02:53:00
7:53 PM,37.0,34.0,89,29.94,10.0,ESE,3.5,-,N/A,,Clear,110,2012-12-15 03:53:00
8:53 PM,37.9,35.1,89,29.95,10.0,SE,5.8,-,N/A,,Clear,130,2012-12-15 04:53:00
9:53 PM,36.0,33.1,89,29.95,10.0,SSE,9.2,-,N/A,,Partly Cloudy,150,2012-12-15 05:53:00
10:53 PM,36.0,33.1,89,29.95,10.0,SE,9.2,-,N/A,,Clear,140,2012-12-15 06:53:00
11:53 PM,34.0,32.0,92,29.94,7.0,SE,10.4,-,N/A,,Scattered Clouds,140,2012-12-15 07:53:00